LTBALGSK [S76]

Details From LTBA - Istanbul Ataturk
To LGSK - Skiathos Alexandros Papadiamantis
Flight Number S76
Tags decoded
Created
Modified
Stats Distance 335 nm / 621 km
Max Altitude 0 ft / 0 m
Waypoints 8
Social Downloads 6
Likes 1
Share VATSIM

Download

Looking for another format? Having issues loading an existing format? Contact us
Advertisement - Login to hide

Notes

Requested: LTBA EKI ALX LMO KOROS KERES OMIRO LGSK

Route

LTBA EKI ALX LMO KOROS KERES OMIRO LGSK

ID Type Via Altitude Latitude Longitude Leg Dist Tot Dist Heading (true) Name
O LTBA APT - 0 ft / 0 m 40.97914˚ 28.81283˚ - 0 nm - Istanbul Ataturk
EKI VOR - 0 ft / 0 m 40.95194˚ 27.42667˚ 62 nm 62 nm 269° / 268° TEKIRDAG VOR-DME
ALX VOR - 0 ft / 0 m 40.85500˚ 25.95722˚ 66 nm 129 nm 265° / 265° ALEXANDROUPOLIS VOR-DME
LMO VOR - 0 ft / 0 m 39.91954˚ 25.23719˚ 65 nm 194 nm 211° / 210° LIMNOS VOR-DME
KOROS FIX - 0 ft / 0 m 39.09972˚ 24.91583˚ 51 nm 246 nm 197° / 197° -
KERES FIX - 0 ft / 0 m 38.97722˚ 24.49222˚ 21 nm 267 nm 250° / 249° -
OMIRO FIX - 0 ft / 0 m 38.75000˚ 23.66722˚ 40 nm 308 nm 251° / 250° -
O LGSK APT - 0 ft / 0 m 39.17710˚ 23.50368˚ 26 nm 335 nm 343° / 343° Skiathos Alexandros Papadiamantis

Altitude Profile

Advertisement - Login to hide

Weather


0- 5 10 15 20 25 30 35+ Temperature / ° C

Clouds and Precipitation
Forecast for 2018-05-21 12:00 UTC. Updated 2 hours ago

Ground ~20,000 ft ~40,000 ft Winds

LTBA

Details ICAO LTBA (IST)
Name Istanbul Ataturk
Region Turkey
Timezone Europe/Istanbul (UTC+3.0)
Stats Elevation 163 ft / 50 m (AMSL)
Location 40.979136° 28.812832°
Runways 3
Magnetic Variation 5.472° E

METAR

LTBA 211250Z 05012KT 360V090 CAVOK 24/13 Q1016 NOSIG

Decode

TAF

Not found

Departure Runways

ID Width Length Bearing (true) Bearing (mag) Surface Threshold Offset Overrun Length
05 197 ft / 60 m 8,514 ft / 2,595 m 58.64° 53.17° Concrete 400 ft / 122 m 197 ft / 60 m
17L 148 ft / 45 m 9,820 ft / 2,993 m 178.48° 173.01° Concrete 0 ft / 0 m 197 ft / 60 m
17R 148 ft / 45 m 9,858 ft / 3,005 m 178.49° 173.02° Concrete 0 ft / 0 m 0 ft / 0 m
23 197 ft / 60 m 8,514 ft / 2,595 m 238.65° 233.18° Concrete 0 ft / 0 m 197 ft / 60 m
35L 148 ft / 45 m 9,858 ft / 3,005 m 358.49° 353.02° Concrete 0 ft / 0 m 200 ft / 61 m
35R 148 ft / 45 m 9,820 ft / 2,993 m 358.48° 353.01° Concrete 0 ft / 0 m 197 ft / 60 m

LGSK

Details ICAO LGSK (JSI)
Name Skiathos Alexandros Papadiamantis
Region Greece
Timezone Europe/Athens (UTC+3.0)
Stats Elevation 54 ft / 16 m (AMSL)
Location 39.177100° 23.503677°
Runways 1
Magnetic Variation 4.596° E

METAR

LGSK 211250Z 04008KT 9999 FEW020 23/15 Q1015

Decode

TAF

Not found

Destination Runways

ID Width Length Bearing (true) Bearing (mag) Surface Threshold Offset Overrun Length
02 98 ft / 30 m 5,535 ft / 1,687 m 18.96° 14.36° Asphalt 190 ft / 58 m 0 ft / 0 m
20 98 ft / 30 m 5,535 ft / 1,687 m 198.97° 194.37° Asphalt 0 ft / 0 m 242 ft / 74 m

Popular Alternatives